sensor_id;sensor_type;location;lat;lon;timestamp;P1;durP1;ratioP1;P2;durP2;ratioP2
18259;SDS011;9256;52.236;5.712;2023-05-19T00:01:08;14.00;;;3.47;;
18259;SDS011;9256;52.236;5.712;2023-05-19T00:03:39;9.50;;;3.50;;
18259;SDS011;9256;52.236;5.712;2023-05-19T00:06:16;12.23;;;3.78;;
18259;SDS011;9256;52.236;5.712;2023-05-19T00:08:46;10.88;;;3.42;;
18259;SDS011;9256;52.236;5.712;2023-05-19T00:11:15;10.55;;;3.40;;
18259;SDS011;9256;52.236;5.712;2023-05-19T00:13:42;12.95;;;3.15;;
18259;SDS011;9256;52.236;5.712;2023-05-19T00:16:12;14.88;;;4.80;;
18259;SDS011;9256;52.236;5.712;2023-05-19T00:18:41;12.27;;;3.67;;
18259;SDS011;9256;52.236;5.712;2023-05-19T00:21:08;10.63;;;3.50;;
18259;SDS011;9256;52.236;5.712;2023-05-19T00:23:35;15.02;;;3.90;;
18259;SDS011;9256;52.236;5.712;2023-05-19T00:26:02;11.50;;;4.10;;
18259;SDS011;9256;52.236;5.712;2023-05-19T00:28:29;11.18;;;3.72;;
18259;SDS011;9256;52.236;5.712;2023-05-19T00:30:56;13.30;;;3.85;;
18259;SDS011;9256;52.236;5.712;2023-05-19T00:33:22;13.98;;;3.78;;
18259;SDS011;9256;52.236;5.712;2023-05-19T00:35:51;12.57;;;3.85;;
18259;SDS011;9256;52.236;5.712;2023-05-19T00:38:18;10.35;;;3.55;;
18259;SDS011;9256;52.236;5.712;2023-05-19T00:40:44;13.52;;;4.05;;
18259;SDS011;9256;52.236;5.712;2023-05-19T00:43:11;15.18;;;3.95;;
18259;SDS011;9256;52.236;5.712;2023-05-19T00:45:38;13.50;;;5.30;;
18259;SDS011;9256;52.236;5.712;2023-05-19T00:48:06;14.68;;;4.30;;
18259;SDS011;9256;52.236;5.712;2023-05-19T00:50:33;14.93;;;4.22;;
18259;SDS011;9256;52.236;5.712;2023-05-19T00:53:01;8.95;;;3.80;;
18259;SDS011;9256;52.236;5.712;2023-05-19T00:55:29;14.55;;;4.10;;
18259;SDS011;9256;52.236;5.712;2023-05-19T00:57:58;12.27;;;5.00;;
18259;SDS011;9256;52.236;5.712;2023-05-19T01:00:26;14.93;;;4.00;;
18259;SDS011;9256;52.236;5.712;2023-05-19T01:02:53;14.75;;;5.32;;
18259;SDS011;9256;52.236;5.712;2023-05-19T01:05:21;16.40;;;4.63;;
18259;SDS011;9256;52.236;5.712;2023-05-19T01:07:48;13.95;;;4.15;;
18259;SDS011;9256;52.236;5.712;2023-05-19T01:10:18;11.60;;;4.03;;
18259;SDS011;9256;52.236;5.712;2023-05-19T01:12:46;13.93;;;4.30;;
18259;SDS011;9256;52.236;5.712;2023-05-19T01:15:13;12.43;;;3.95;;
18259;SDS011;9256;52.236;5.712;2023-05-19T01:17:47;12.35;;;4.10;;
18259;SDS011;9256;52.236;5.712;2023-05-19T01:20:21;14.65;;;4.05;;
18259;SDS011;9256;52.236;5.712;2023-05-19T01:22:55;10.32;;;3.72;;
18259;SDS011;9256;52.236;5.712;2023-05-19T01:25:46;9.05;;;3.70;;
18259;SDS011;9256;52.236;5.712;2023-05-19T01:28:39;14.18;;;4.00;;
18259;SDS011;9256;52.236;5.712;2023-05-19T01:31:20;15.52;;;3.92;;
18259;SDS011;9256;52.236;5.712;2023-05-19T01:33:48;13.73;;;4.25;;
18259;SDS011;9256;52.236;5.712;2023-05-19T01:36:18;14.57;;;4.45;;
18259;SDS011;9256;52.236;5.712;2023-05-19T01:38:47;14.55;;;4.50;;
18259;SDS011;9256;52.236;5.712;2023-05-19T01:41:17;11.95;;;4.07;;
18259;SDS011;9256;52.236;5.712;2023-05-19T01:43:45;16.70;;;4.25;;
18259;SDS011;9256;52.236;5.712;2023-05-19T01:46:13;13.90;;;4.20;;
18259;SDS011;9256;52.236;5.712;2023-05-19T01:48:42;13.13;;;4.22;;
18259;SDS011;9256;52.236;5.712;2023-05-19T01:51:10;13.88;;;4.18;;
18259;SDS011;9256;52.236;5.712;2023-05-19T01:53:37;10.35;;;3.70;;
18259;SDS011;9256;52.236;5.712;2023-05-19T01:56:04;16.90;;;4.35;;
18259;SDS011;9256;52.236;5.712;2023-05-19T01:58:35;14.27;;;4.30;;
18259;SDS011;9256;52.236;5.712;2023-05-19T02:01:15;10.77;;;4.38;;
18259;SDS011;9256;52.236;5.712;2023-05-19T02:03:58;15.15;;;4.47;;
18259;SDS011;9256;52.236;5.712;2023-05-19T02:06:35;11.68;;;3.97;;
18259;SDS011;9256;52.236;5.712;2023-05-19T02:09:07;13.80;;;3.95;;
18259;SDS011;9256;52.236;5.712;2023-05-19T02:11:38;12.65;;;4.05;;
18259;SDS011;9256;52.236;5.712;2023-05-19T02:14:11;14.30;;;4.53;;
18259;SDS011;9256;52.236;5.712;2023-05-19T02:16:42;13.57;;;4.18;;
18259;SDS011;9256;52.236;5.712;2023-05-19T02:19:20;17.20;;;4.47;;
18259;SDS011;9256;52.236;5.712;2023-05-19T02:21:47;10.90;;;4.07;;
18259;SDS011;9256;52.236;5.712;2023-05-19T02:24:14;15.95;;;4.95;;
18259;SDS011;9256;52.236;5.712;2023-05-19T02:26:41;17.25;;;4.55;;
18259;SDS011;9256;52.236;5.712;2023-05-19T02:29:09;14.25;;;4.43;;
18259;SDS011;9256;52.236;5.712;2023-05-19T02:31:36;17.83;;;6.50;;
18259;SDS011;9256;52.236;5.712;2023-05-19T02:34:03;12.35;;;4.65;;
18259;SDS011;9256;52.236;5.712;2023-05-19T02:36:32;14.68;;;4.78;;
18259;SDS011;9256;52.236;5.712;2023-05-19T02:39:00;15.75;;;4.80;;
18259;SDS011;9256;52.236;5.712;2023-05-19T02:41:27;12.45;;;4.22;;
18259;SDS011;9256;52.236;5.712;2023-05-19T02:43:54;13.50;;;4.18;;
18259;SDS011;9256;52.236;5.712;2023-05-19T02:46:22;18.25;;;4.97;;
18259;SDS011;9256;52.236;5.712;2023-05-19T02:48:49;16.63;;;4.78;;
18259;SDS011;9256;52.236;5.712;2023-05-19T02:51:16;16.08;;;5.10;;
18259;SDS011;9256;52.236;5.712;2023-05-19T02:53:45;13.77;;;4.55;;
18259;SDS011;9256;52.236;5.712;2023-05-19T02:56:12;14.60;;;4.87;;
18259;SDS011;9256;52.236;5.712;2023-05-19T02:58:38;16.50;;;4.90;;
18259;SDS011;9256;52.236;5.712;2023-05-19T03:01:07;16.98;;;4.97;;
18259;SDS011;9256;52.236;5.712;2023-05-19T03:03:34;13.02;;;4.88;;
18259;SDS011;9256;52.236;5.712;2023-05-19T03:06:01;16.13;;;4.80;;
18259;SDS011;9256;52.236;5.712;2023-05-19T03:08:28;18.67;;;4.93;;
18259;SDS011;9256;52.236;5.712;2023-05-19T03:10:56;14.02;;;4.88;;
18259;SDS011;9256;52.236;5.712;2023-05-19T03:13:23;13.25;;;4.72;;
18259;SDS011;9256;52.236;5.712;2023-05-19T03:15:50;18.92;;;5.20;;
18259;SDS011;9256;52.236;5.712;2023-05-19T03:18:16;15.93;;;5.05;;
18259;SDS011;9256;52.236;5.712;2023-05-19T03:20:43;15.75;;;4.80;;
18259;SDS011;9256;52.236;5.712;2023-05-19T03:23:10;15.73;;;5.25;;
18259;SDS011;9256;52.236;5.712;2023-05-19T03:25:37;16.67;;;5.13;;
18259;SDS011;9256;52.236;5.712;2023-05-19T03:28:05;16.23;;;4.82;;
18259;SDS011;9256;52.236;5.712;2023-05-19T03:30:32;15.48;;;5.45;;
18259;SDS011;9256;52.236;5.712;2023-05-19T03:32:59;15.87;;;5.67;;
18259;SDS011;9256;52.236;5.712;2023-05-19T03:35:27;20.58;;;5.57;;
18259;SDS011;9256;52.236;5.712;2023-05-19T03:37:53;18.05;;;5.47;;
18259;SDS011;9256;52.236;5.712;2023-05-19T03:40:20;17.48;;;5.32;;
18259;SDS011;9256;52.236;5.712;2023-05-19T03:42:47;14.90;;;4.60;;
18259;SDS011;9256;52.236;5.712;2023-05-19T03:45:16;16.45;;;5.18;;
18259;SDS011;9256;52.236;5.712;2023-05-19T03:47:43;19.33;;;5.27;;
18259;SDS011;9256;52.236;5.712;2023-05-19T03:50:11;16.92;;;5.60;;
18259;SDS011;9256;52.236;5.712;2023-05-19T03:52:39;16.20;;;5.28;;
18259;SDS011;9256;52.236;5.712;2023-05-19T03:55:10;18.70;;;5.20;;
18259;SDS011;9256;52.236;5.712;2023-05-19T03:57:38;16.83;;;5.93;;
18259;SDS011;9256;52.236;5.712;2023-05-19T04:00:07;20.92;;;5.55;;
18259;SDS011;9256;52.236;5.712;2023-05-19T04:02:37;17.95;;;5.43;;
18259;SDS011;9256;52.236;5.712;2023-05-19T04:05:04;17.17;;;5.47;;
18259;SDS011;9256;52.236;5.712;2023-05-19T04:07:32;18.70;;;7.40;;
18259;SDS011;9256;52.236;5.712;2023-05-19T04:09:59;16.67;;;5.82;;
18259;SDS011;9256;52.236;5.712;2023-05-19T04:12:28;19.05;;;5.90;;
18259;SDS011;9256;52.236;5.712;2023-05-19T04:14:56;17.83;;;5.68;;
18259;SDS011;9256;52.236;5.712;2023-05-19T04:17:22;18.08;;;5.43;;
18259;SDS011;9256;52.236;5.712;2023-05-19T04:19:52;16.75;;;5.53;;
18259;SDS011;9256;52.236;5.712;2023-05-19T04:22:19;18.33;;;5.50;;
18259;SDS011;9256;52.236;5.712;2023-05-19T04:24:46;17.17;;;5.90;;
18259;SDS011;9256;52.236;5.712;2023-05-19T04:27:15;22.88;;;7.65;;
18259;SDS011;9256;52.236;5.712;2023-05-19T04:29:42;16.80;;;6.40;;
18259;SDS011;9256;52.236;5.712;2023-05-19T04:32:10;19.55;;;6.20;;
18259;SDS011;9256;52.236;5.712;2023-05-19T04:34:41;23.85;;;6.57;;
18259;SDS011;9256;52.236;5.712;2023-05-19T04:37:11;17.38;;;6.45;;
18259;SDS011;9256;52.236;5.712;2023-05-19T04:39:40;20.83;;;6.28;;
18259;SDS011;9256;52.236;5.712;2023-05-19T04:42:09;18.47;;;6.27;;
18259;SDS011;9256;52.236;5.712;2023-05-19T04:44:37;21.38;;;6.60;;
18259;SDS011;9256;52.236;5.712;2023-05-19T04:47:04;20.75;;;7.13;;
18259;SDS011;9256;52.236;5.712;2023-05-19T04:49:32;23.70;;;6.90;;
18259;SDS011;9256;52.236;5.712;2023-05-19T04:52:03;23.33;;;7.53;;
18259;SDS011;9256;52.236;5.712;2023-05-19T04:54:33;28.70;;;10.65;;
18259;SDS011;9256;52.236;5.712;2023-05-19T04:57:00;24.90;;;8.20;;
18259;SDS011;9256;52.236;5.712;2023-05-19T04:59:27;24.27;;;7.72;;
18259;SDS011;9256;52.236;5.712;2023-05-19T05:01:54;23.95;;;7.90;;
18259;SDS011;9256;52.236;5.712;2023-05-19T05:04:21;24.95;;;7.40;;
18259;SDS011;9256;52.236;5.712;2023-05-19T05:06:49;23.67;;;7.47;;
18259;SDS011;9256;52.236;5.712;2023-05-19T05:09:16;25.67;;;7.50;;
18259;SDS011;9256;52.236;5.712;2023-05-19T05:11:45;30.33;;;11.05;;
18259;SDS011;9256;52.236;5.712;2023-05-19T05:14:12;19.92;;;8.27;;
18259;SDS011;9256;52.236;5.712;2023-05-19T05:16:40;23.00;;;7.88;;
18259;SDS011;9256;52.236;5.712;2023-05-19T05:19:07;24.05;;;7.65;;
18259;SDS011;9256;52.236;5.712;2023-05-19T05:21:35;21.70;;;8.10;;
18259;SDS011;9256;52.236;5.712;2023-05-19T05:24:03;21.38;;;7.65;;
18259;SDS011;9256;52.236;5.712;2023-05-19T05:26:31;25.60;;;7.88;;
18259;SDS011;9256;52.236;5.712;2023-05-19T05:29:00;23.40;;;7.82;;
18259;SDS011;9256;52.236;5.712;2023-05-19T05:31:27;24.52;;;7.72;;
18259;SDS011;9256;52.236;5.712;2023-05-19T05:33:55;20.25;;;7.32;;
18259;SDS011;9256;52.236;5.712;2023-05-19T05:36:22;25.08;;;7.35;;
18259;SDS011;9256;52.236;5.712;2023-05-19T05:38:49;19.55;;;7.43;;
18259;SDS011;9256;52.236;5.712;2023-05-19T05:41:16;20.10;;;6.95;;
18259;SDS011;9256;52.236;5.712;2023-05-19T05:43:43;20.02;;;7.22;;
18259;SDS011;9256;52.236;5.712;2023-05-19T05:46:11;25.23;;;7.82;;
18259;SDS011;9256;52.236;5.712;2023-05-19T05:48:38;16.58;;;7.30;;
18259;SDS011;9256;52.236;5.712;2023-05-19T05:51:07;18.10;;;6.78;;
18259;SDS011;9256;52.236;5.712;2023-05-19T05:53:36;16.75;;;6.35;;
18259;SDS011;9256;52.236;5.712;2023-05-19T05:56:07;19.95;;;6.80;;
18259;SDS011;9256;52.236;5.712;2023-05-19T05:58:35;19.45;;;7.22;;
18259;SDS011;9256;52.236;5.712;2023-05-19T06:01:04;17.75;;;6.35;;
18259;SDS011;9256;52.236;5.712;2023-05-19T06:03:36;17.88;;;6.63;;
18259;SDS011;9256;52.236;5.712;2023-05-19T06:06:04;18.83;;;6.07;;
18259;SDS011;9256;52.236;5.712;2023-05-19T06:08:31;17.30;;;6.55;;
18259;SDS011;9256;52.236;5.712;2023-05-19T06:10:58;17.85;;;6.45;;
18259;SDS011;9256;52.236;5.712;2023-05-19T06:13:25;17.83;;;6.00;;
18259;SDS011;9256;52.236;5.712;2023-05-19T06:15:52;18.55;;;6.30;;
18259;SDS011;9256;52.236;5.712;2023-05-19T06:18:19;18.15;;;6.20;;
18259;SDS011;9256;52.236;5.712;2023-05-19T06:20:47;20.02;;;8.07;;
18259;SDS011;9256;52.236;5.712;2023-05-19T06:23:14;20.05;;;6.25;;
18259;SDS011;9256;52.236;5.712;2023-05-19T06:25:41;15.90;;;5.63;;
18259;SDS011;9256;52.236;5.712;2023-05-19T06:28:08;17.15;;;5.82;;
18259;SDS011;9256;52.236;5.712;2023-05-19T06:30:35;15.27;;;5.47;;
18259;SDS011;9256;52.236;5.712;2023-05-19T06:33:02;15.27;;;5.78;;
18259;SDS011;9256;52.236;5.712;2023-05-19T06:35:29;15.00;;;4.95;;
18259;SDS011;9256;52.236;5.712;2023-05-19T06:37:57;15.00;;;5.10;;
18259;SDS011;9256;52.236;5.712;2023-05-19T06:40:24;17.10;;;4.80;;
18259;SDS011;9256;52.236;5.712;2023-05-19T06:42:51;13.95;;;4.68;;
18259;SDS011;9256;52.236;5.712;2023-05-19T06:45:18;10.98;;;4.00;;
18259;SDS011;9256;52.236;5.712;2023-05-19T06:47:46;12.05;;;4.20;;
18259;SDS011;9256;52.236;5.712;2023-05-19T06:50:13;21.40;;;5.47;;
18259;SDS011;9256;52.236;5.712;2023-05-19T06:52:40;12.15;;;4.35;;
18259;SDS011;9256;52.236;5.712;2023-05-19T06:55:09;12.73;;;3.63;;
18259;SDS011;9256;52.236;5.712;2023-05-19T06:57:36;11.10;;;3.75;;
18259;SDS011;9256;52.236;5.712;2023-05-19T07:00:03;12.07;;;3.15;;
18259;SDS011;9256;52.236;5.712;2023-05-19T07:02:34;11.18;;;2.72;;
18259;SDS011;9256;52.236;5.712;2023-05-19T07:05:01;10.00;;;2.97;;
18259;SDS011;9256;52.236;5.712;2023-05-19T07:07:28;12.13;;;3.05;;
18259;SDS011;9256;52.236;5.712;2023-05-19T07:09:55;10.38;;;3.10;;
18259;SDS011;9256;52.236;5.712;2023-05-19T07:12:23;8.15;;;2.50;;
18259;SDS011;9256;52.236;5.712;2023-05-19T07:14:50;8.40;;;3.00;;
18259;SDS011;9256;52.236;5.712;2023-05-19T07:17:17;12.32;;;2.47;;
18259;SDS011;9256;52.236;5.712;2023-05-19T07:19:44;10.10;;;2.20;;
18259;SDS011;9256;52.236;5.712;2023-05-19T07:22:11;7.50;;;2.30;;
18259;SDS011;9256;52.236;5.712;2023-05-19T07:24:38;8.05;;;2.25;;
18259;SDS011;9256;52.236;5.712;2023-05-19T07:27:05;7.63;;;2.10;;
18259;SDS011;9256;52.236;5.712;2023-05-19T07:29:34;7.43;;;1.70;;
18259;SDS011;9256;52.236;5.712;2023-05-19T07:32:01;8.50;;;2.10;;
18259;SDS011;9256;52.236;5.712;2023-05-19T07:34:28;5.20;;;1.65;;
18259;SDS011;9256;52.236;5.712;2023-05-19T07:36:55;7.47;;;2.08;;
18259;SDS011;9256;52.236;5.712;2023-05-19T07:39:22;8.55;;;2.15;;
18259;SDS011;9256;52.236;5.712;2023-05-19T07:41:53;14.38;;;2.15;;
18259;SDS011;9256;52.236;5.712;2023-05-19T07:44:20;8.95;;;2.00;;
18259;SDS011;9256;52.236;5.712;2023-05-19T07:46:48;8.13;;;2.03;;
18259;SDS011;9256;52.236;5.712;2023-05-19T07:49:15;6.35;;;1.65;;
18259;SDS011;9256;52.236;5.712;2023-05-19T07:51:42;11.65;;;2.70;;
18259;SDS011;9256;52.236;5.712;2023-05-19T07:54:09;7.50;;;2.03;;
18259;SDS011;9256;52.236;5.712;2023-05-19T07:56:36;6.05;;;1.63;;
18259;SDS011;9256;52.236;5.712;2023-05-19T07:59:03;7.95;;;1.55;;
18259;SDS011;9256;52.236;5.712;2023-05-19T08:01:32;9.25;;;1.92;;
18259;SDS011;9256;52.236;5.712;2023-05-19T08:04:00;6.15;;;2.00;;
18259;SDS011;9256;52.236;5.712;2023-05-19T08:06:27;6.50;;;1.65;;
18259;SDS011;9256;52.236;5.712;2023-05-19T08:08:55;12.88;;;1.70;;
18259;SDS011;9256;52.236;5.712;2023-05-19T08:11:22;9.25;;;1.75;;
18259;SDS011;9256;52.236;5.712;2023-05-19T08:13:49;7.32;;;1.58;;
18259;SDS011;9256;52.236;5.712;2023-05-19T08:16:16;7.18;;;1.80;;
18259;SDS011;9256;52.236;5.712;2023-05-19T08:18:43;7.22;;;1.70;;
18259;SDS011;9256;52.236;5.712;2023-05-19T08:21:12;9.68;;;2.00;;
18259;SDS011;9256;52.236;5.712;2023-05-19T08:23:39;5.60;;;1.90;;
18259;SDS011;9256;52.236;5.712;2023-05-19T08:26:05;8.25;;;2.13;;
18259;SDS011;9256;52.236;5.712;2023-05-19T08:28:32;6.90;;;2.03;;
18259;SDS011;9256;52.236;5.712;2023-05-19T08:30:59;6.80;;;1.92;;
18259;SDS011;9256;52.236;5.712;2023-05-19T08:33:26;9.55;;;2.53;;
18259;SDS011;9256;52.236;5.712;2023-05-19T08:35:54;6.85;;;2.30;;
18259;SDS011;9256;52.236;5.712;2023-05-19T08:38:23;11.45;;;2.38;;
18259;SDS011;9256;52.236;5.712;2023-05-19T08:40:50;8.82;;;1.98;;
18259;SDS011;9256;52.236;5.712;2023-05-19T08:43:17;7.28;;;1.98;;
18259;SDS011;9256;52.236;5.712;2023-05-19T08:45:44;7.00;;;1.83;;
18259;SDS011;9256;52.236;5.712;2023-05-19T08:48:12;3.58;;;1.67;;
18259;SDS011;9256;52.236;5.712;2023-05-19T08:50:39;6.40;;;1.73;;
18259;SDS011;9256;52.236;5.712;2023-05-19T08:53:11;6.60;;;2.00;;
18259;SDS011;9256;52.236;5.712;2023-05-19T08:55:48;7.78;;;1.80;;
18259;SDS011;9256;52.236;5.712;2023-05-19T08:58:23;7.18;;;2.08;;
18259;SDS011;9256;52.236;5.712;2023-05-19T09:00:52;7.20;;;2.00;;
18259;SDS011;9256;52.236;5.712;2023-05-19T09:03:20;6.10;;;2.00;;
18259;SDS011;9256;52.236;5.712;2023-05-19T09:05:50;8.48;;;2.03;;
18259;SDS011;9256;52.236;5.712;2023-05-19T09:08:17;7.82;;;1.98;;
18259;SDS011;9256;52.236;5.712;2023-05-19T09:10:45;9.63;;;2.65;;
18259;SDS011;9256;52.236;5.712;2023-05-19T09:13:12;7.70;;;1.92;;
18259;SDS011;9256;52.236;5.712;2023-05-19T09:15:39;7.20;;;1.90;;
18259;SDS011;9256;52.236;5.712;2023-05-19T09:18:09;7.30;;;1.80;;
18259;SDS011;9256;52.236;5.712;2023-05-19T09:20:38;6.57;;;1.40;;
18259;SDS011;9256;52.236;5.712;2023-05-19T09:23:06;6.63;;;1.63;;
18259;SDS011;9256;52.236;5.712;2023-05-19T09:25:46;5.68;;;2.28;;
18259;SDS011;9256;52.236;5.712;2023-05-19T09:28:13;5.25;;;2.10;;
18259;SDS011;9256;52.236;5.712;2023-05-19T09:30:47;9.63;;;2.47;;
18259;SDS011;9256;52.236;5.712;2023-05-19T09:33:15;5.32;;;1.95;;
18259;SDS011;9256;52.236;5.712;2023-05-19T09:35:45;4.75;;;1.70;;
18259;SDS011;9256;52.236;5.712;2023-05-19T09:38:16;5.55;;;1.73;;
18259;SDS011;9256;52.236;5.712;2023-05-19T09:40:43;5.43;;;1.90;;
18259;SDS011;9256;52.236;5.712;2023-05-19T09:43:11;10.55;;;2.05;;
18259;SDS011;9256;52.236;5.712;2023-05-19T09:45:38;6.47;;;2.17;;
18259;SDS011;9256;52.236;5.712;2023-05-19T09:48:06;6.30;;;1.92;;
18259;SDS011;9256;52.236;5.712;2023-05-19T09:50:33;5.93;;;2.00;;
18259;SDS011;9256;52.236;5.712;2023-05-19T09:53:00;7.65;;;2.05;;
18259;SDS011;9256;52.236;5.712;2023-05-19T09:55:27;6.82;;;1.90;;
18259;SDS011;9256;52.236;5.712;2023-05-19T09:57:56;8.00;;;2.15;;
18259;SDS011;9256;52.236;5.712;2023-05-19T10:00:25;6.35;;;1.95;;
18259;SDS011;9256;52.236;5.712;2023-05-19T10:02:53;6.88;;;1.90;;
18259;SDS011;9256;52.236;5.712;2023-05-19T10:05:21;5.45;;;1.70;;
18259;SDS011;9256;52.236;5.712;2023-05-19T10:07:49;8.32;;;2.15;;
18259;SDS011;9256;52.236;5.712;2023-05-19T10:10:18;5.70;;;1.80;;
18259;SDS011;9256;52.236;5.712;2023-05-19T10:12:46;8.13;;;1.98;;
18259;SDS011;9256;52.236;5.712;2023-05-19T10:15:14;7.32;;;2.10;;
18259;SDS011;9256;52.236;5.712;2023-05-19T10:17:44;5.28;;;1.90;;
18259;SDS011;9256;52.236;5.712;2023-05-19T10:20:12;5.38;;;1.70;;
18259;SDS011;9256;52.236;5.712;2023-05-19T10:22:41;8.60;;;2.10;;
18259;SDS011;9256;52.236;5.712;2023-05-19T10:25:09;4.82;;;1.90;;
18259;SDS011;9256;52.236;5.712;2023-05-19T10:27:39;6.63;;;2.10;;
18259;SDS011;9256;52.236;5.712;2023-05-19T10:30:10;8.70;;;2.08;;
18259;SDS011;9256;52.236;5.712;2023-05-19T10:32:43;4.57;;;1.67;;
18259;SDS011;9256;52.236;5.712;2023-05-19T10:35:19;5.78;;;1.90;;
18259;SDS011;9256;52.236;5.712;2023-05-19T10:38:08;11.50;;;2.10;;
18259;SDS011;9256;52.236;5.712;2023-05-19T10:40:42;6.45;;;2.15;;
18259;SDS011;9256;52.236;5.712;2023-05-19T10:43:24;8.45;;;1.90;;
18259;SDS011;9256;52.236;5.712;2023-05-19T10:46:02;8.05;;;2.50;;
18259;SDS011;9256;52.236;5.712;2023-05-19T10:48:33;6.95;;;1.80;;
18259;SDS011;9256;52.236;5.712;2023-05-19T10:51:01;6.78;;;2.08;;
18259;SDS011;9256;52.236;5.712;2023-05-19T10:53:31;9.60;;;2.15;;
18259;SDS011;9256;52.236;5.712;2023-05-19T10:55:59;6.78;;;2.35;;
18259;SDS011;9256;52.236;5.712;2023-05-19T10:58:37;9.10;;;1.80;;
18259;SDS011;9256;52.236;5.712;2023-05-19T11:01:14;6.97;;;2.05;;
18259;SDS011;9256;52.236;5.712;2023-05-19T11:03:47;6.53;;;1.70;;
18259;SDS011;9256;52.236;5.712;2023-05-19T11:06:16;6.88;;;1.60;;
18259;SDS011;9256;52.236;5.712;2023-05-19T11:08:53;9.57;;;1.88;;
18259;SDS011;9256;52.236;5.712;2023-05-19T11:11:22;9.43;;;2.17;;
18259;SDS011;9256;52.236;5.712;2023-05-19T11:13:50;7.60;;;1.77;;
18259;SDS011;9256;52.236;5.712;2023-05-19T11:16:20;8.75;;;1.85;;
18259;SDS011;9256;52.236;5.712;2023-05-19T11:18:54;6.53;;;1.73;;
18259;SDS011;9256;52.236;5.712;2023-05-19T11:21:21;8.45;;;2.20;;
18259;SDS011;9256;52.236;5.712;2023-05-19T11:23:49;5.15;;;1.75;;
18259;SDS011;9256;52.236;5.712;2023-05-19T11:29:06;7.25;;;1.98;;
18259;SDS011;9256;52.236;5.712;2023-05-19T11:31:33;7.10;;;1.63;;
18259;SDS011;9256;52.236;5.712;2023-05-19T11:34:02;7.05;;;1.90;;
18259;SDS011;9256;52.236;5.712;2023-05-19T11:36:31;8.13;;;2.05;;
18259;SDS011;9256;52.236;5.712;2023-05-19T11:38:59;7.75;;;1.73;;
18259;SDS011;9256;52.236;5.712;2023-05-19T11:41:27;7.25;;;1.80;;
18259;SDS011;9256;52.236;5.712;2023-05-19T11:43:55;4.60;;;1.60;;
18259;SDS011;9256;52.236;5.712;2023-05-19T11:46:22;10.57;;;1.85;;
18259;SDS011;9256;52.236;5.712;2023-05-19T11:48:50;7.60;;;1.77;;
18259;SDS011;9256;52.236;5.712;2023-05-19T11:51:21;3.97;;;1.40;;
18259;SDS011;9256;52.236;5.712;2023-05-19T11:53:48;4.65;;;1.63;;
18259;SDS011;9256;52.236;5.712;2023-05-19T11:56:18;5.25;;;1.52;;
18259;SDS011;9256;52.236;5.712;2023-05-19T11:58:46;6.03;;;1.60;;
18259;SDS011;9256;52.236;5.712;2023-05-19T12:01:13;6.90;;;1.40;;
18259;SDS011;9256;52.236;5.712;2023-05-19T12:03:40;5.88;;;1.52;;
18259;SDS011;9256;52.236;5.712;2023-05-19T12:06:07;4.85;;;1.65;;
18259;SDS011;9256;52.236;5.712;2023-05-19T12:08:35;4.45;;;1.60;;
18259;SDS011;9256;52.236;5.712;2023-05-19T12:11:03;4.30;;;1.40;;
18259;SDS011;9256;52.236;5.712;2023-05-19T12:13:31;5.13;;;1.70;;
18259;SDS011;9256;52.236;5.712;2023-05-19T12:15:59;5.25;;;1.50;;
18259;SDS011;9256;52.236;5.712;2023-05-19T12:18:28;4.20;;;1.30;;
18259;SDS011;9256;52.236;5.712;2023-05-19T12:20:56;6.40;;;1.65;;
18259;SDS011;9256;52.236;5.712;2023-05-19T12:23:23;6.38;;;1.75;;
18259;SDS011;9256;52.236;5.712;2023-05-19T12:25:52;4.22;;;1.45;;
18259;SDS011;9256;52.236;5.712;2023-05-19T12:28:19;5.32;;;1.50;;
18259;SDS011;9256;52.236;5.712;2023-05-19T12:30:46;7.22;;;1.60;;
18259;SDS011;9256;52.236;5.712;2023-05-19T12:33:16;5.93;;;1.52;;
18259;SDS011;9256;52.236;5.712;2023-05-19T12:35:43;8.05;;;1.75;;
18259;SDS011;9256;52.236;5.712;2023-05-19T12:38:12;4.68;;;1.80;;
18259;SDS011;9256;52.236;5.712;2023-05-19T12:40:40;3.88;;;1.50;;
18259;SDS011;9256;52.236;5.712;2023-05-19T12:43:09;5.80;;;1.50;;
18259;SDS011;9256;52.236;5.712;2023-05-19T12:45:45;8.57;;;1.80;;
18259;SDS011;9256;52.236;5.712;2023-05-19T12:48:12;7.78;;;1.90;;
18259;SDS011;9256;52.236;5.712;2023-05-19T12:50:41;6.82;;;1.90;;
18259;SDS011;9256;52.236;5.712;2023-05-19T12:53:08;8.32;;;2.15;;
18259;SDS011;9256;52.236;5.712;2023-05-19T12:55:37;5.88;;;1.73;;
18259;SDS011;9256;52.236;5.712;2023-05-19T12:58:06;8.90;;;2.20;;
18259;SDS011;9256;52.236;5.712;2023-05-19T13:00:35;7.43;;;2.05;;
18259;SDS011;9256;52.236;5.712;2023-05-19T13:03:06;8.82;;;2.40;;
18259;SDS011;9256;52.236;5.712;2023-05-19T13:05:40;15.30;;;4.13;;
18259;SDS011;9256;52.236;5.712;2023-05-19T13:08:09;14.50;;;3.33;;
18259;SDS011;9256;52.236;5.712;2023-05-19T13:10:37;8.45;;;3.25;;
18259;SDS011;9256;52.236;5.712;2023-05-19T13:13:05;26.17;;;7.50;;
18259;SDS011;9256;52.236;5.712;2023-05-19T13:15:35;12.45;;;4.50;;
18259;SDS011;9256;52.236;5.712;2023-05-19T13:18:04;9.57;;;2.17;;
18259;SDS011;9256;52.236;5.712;2023-05-19T13:20:32;8.60;;;2.08;;
18259;SDS011;9256;52.236;5.712;2023-05-19T13:23:00;5.82;;;1.77;;
18259;SDS011;9256;52.236;5.712;2023-05-19T13:25:27;6.25;;;1.55;;
18259;SDS011;9256;52.236;5.712;2023-05-19T13:27:54;5.75;;;1.80;;
18259;SDS011;9256;52.236;5.712;2023-05-19T13:30:23;4.43;;;1.88;;
18259;SDS011;9256;52.236;5.712;2023-05-19T13:32:51;7.70;;;1.77;;
18259;SDS011;9256;52.236;5.712;2023-05-19T13:35:18;6.20;;;1.48;;
18259;SDS011;9256;52.236;5.712;2023-05-19T13:37:45;7.97;;;1.80;;
18259;SDS011;9256;52.236;5.712;2023-05-19T13:40:14;7.40;;;2.00;;
18259;SDS011;9256;52.236;5.712;2023-05-19T13:42:42;6.05;;;1.52;;
18259;SDS011;9256;52.236;5.712;2023-05-19T13:45:09;4.90;;;1.52;;
18259;SDS011;9256;52.236;5.712;2023-05-19T13:47:36;4.93;;;1.60;;
18259;SDS011;9256;52.236;5.712;2023-05-19T13:50:05;5.85;;;2.10;;
18259;SDS011;9256;52.236;5.712;2023-05-19T13:52:32;37.53;;;16.20;;
18259;SDS011;9256;52.236;5.712;2023-05-19T13:54:59;11.07;;;3.78;;
18259;SDS011;9256;52.236;5.712;2023-05-19T13:57:26;10.27;;;2.90;;
18259;SDS011;9256;52.236;5.712;2023-05-19T13:59:53;13.15;;;4.78;;
18259;SDS011;9256;52.236;5.712;2023-05-19T14:02:20;5.57;;;1.85;;
18259;SDS011;9256;52.236;5.712;2023-05-19T14:04:47;6.97;;;2.92;;
18259;SDS011;9256;52.236;5.712;2023-05-19T14:07:16;6.45;;;1.90;;
18259;SDS011;9256;52.236;5.712;2023-05-19T14:09:43;6.95;;;1.95;;
18259;SDS011;9256;52.236;5.712;2023-05-19T14:12:10;4.53;;;1.67;;
18259;SDS011;9256;52.236;5.712;2023-05-19T14:14:37;5.32;;;1.80;;
18259;SDS011;9256;52.236;5.712;2023-05-19T14:17:04;9.30;;;1.70;;
18259;SDS011;9256;52.236;5.712;2023-05-19T14:19:31;4.68;;;1.70;;
18259;SDS011;9256;52.236;5.712;2023-05-19T14:21:58;8.45;;;1.60;;
18259;SDS011;9256;52.236;5.712;2023-05-19T14:24:26;6.70;;;2.00;;
18259;SDS011;9256;52.236;5.712;2023-05-19T14:26:53;6.88;;;2.00;;
18259;SDS011;9256;52.236;5.712;2023-05-19T14:29:20;5.35;;;1.80;;
18259;SDS011;9256;52.236;5.712;2023-05-19T14:31:47;6.40;;;1.70;;
18259;SDS011;9256;52.236;5.712;2023-05-19T14:34:14;5.72;;;1.70;;
18259;SDS011;9256;52.236;5.712;2023-05-19T14:36:44;8.15;;;1.48;;
18259;SDS011;9256;52.236;5.712;2023-05-19T14:39:11;3.90;;;1.70;;
18259;SDS011;9256;52.236;5.712;2023-05-19T14:41:40;5.68;;;1.88;;
18259;SDS011;9256;52.236;5.712;2023-05-19T14:44:07;5.82;;;1.77;;
18259;SDS011;9256;52.236;5.712;2023-05-19T14:46:34;6.60;;;1.90;;
18259;SDS011;9256;52.236;5.712;2023-05-19T14:49:01;6.43;;;1.90;;
18259;SDS011;9256;52.236;5.712;2023-05-19T14:51:30;7.55;;;1.90;;
18259;SDS011;9256;52.236;5.712;2023-05-19T14:53:57;8.95;;;1.77;;
18259;SDS011;9256;52.236;5.712;2023-05-19T14:56:24;4.70;;;1.58;;
18259;SDS011;9256;52.236;5.712;2023-05-19T14:58:52;5.15;;;1.42;;
18259;SDS011;9256;52.236;5.712;2023-05-19T15:01:19;3.72;;;1.63;;
18259;SDS011;9256;52.236;5.712;2023-05-19T15:03:46;6.82;;;1.67;;
18259;SDS011;9256;52.236;5.712;2023-05-19T15:06:13;6.90;;;1.80;;